SCVD/ZAL METAR and TAF weather

Enter ICAO airport designator
Station Type Date Time Source
SCVD METAR 2019/05/26 23:00 UTC NOAA

SCVD 262300Z 00000KT 3400 BR FEW030 BKN040 OVC060 10/10 Q1015


Station Type Date Time Source
SCVD Decoded METAR 2019/05/26 23:00 UTC NOAA

Valdivia, Chile (SCVD) 39-37S 073-05W
May 26, 2019 - 07:00 PM EDT / 2019.05.26 2300 UTC
Wind: Calm:0
Visibility: 2 mile(s):0
Sky conditions: overcast
Weather: mist
Temperature: 50 F (10 C)
Dew Point: 50 F (10 C)
Relative Humidity: 100%
Pressure (altimeter): 29.97 in. Hg (1015 hPa)
ob: SCVD 262300Z 00000KT 3400 BR FEW030 BKN040 OVC060 10/10 Q1015
cycle: 23

Station Type Date Time Source
SCVD TAF 2019/05/26 12:00 UTC NOAA

TAF SCVD 261045Z 2612/2624 VRB02KT 0800 FG BKN002 OVC050 TN04/2612Z TX10/2619Z
BECMG 2613/2615 9999 NSW FEW010 BKN060
BECMG 2616/2618 SCT016 BKN060
TEMPO 2617/2621 33005KT 9999 -SHRA FEW010 BKN0018

Example: see airport list